createdAt,value
2022-11-06T00:00:48.330Z,17.60
2022-11-06T00:03:17.147Z,16.87
2022-11-06T00:06:03.078Z,17.20
2022-11-06T00:08:34.981Z,17.63
2022-11-06T00:11:09.244Z,18.20
2022-11-06T00:13:39.020Z,18.20
2022-11-06T00:16:09.792Z,18.43
2022-11-06T00:18:39.609Z,19.17
2022-11-06T00:21:09.477Z,18.23
2022-11-06T00:23:39.435Z,18.03
2022-11-06T00:26:09.323Z,17.43
2022-11-06T00:28:38.151Z,17.17
2022-11-06T00:31:08.077Z,17.57
2022-11-06T00:33:37.272Z,18.73
2022-11-06T00:36:07.076Z,18.20
2022-11-06T00:38:35.874Z,19.00
2022-11-06T00:41:07.205Z,19.13
2022-11-06T00:43:36.688Z,18.27
2022-11-06T00:46:08.068Z,18.30
2022-11-06T00:48:37.591Z,18.87
2022-11-06T00:51:07.718Z,18.00
2022-11-06T00:53:36.302Z,18.30
2022-11-06T00:56:08.470Z,17.70
2022-11-06T00:58:37.131Z,18.17
2022-11-06T01:01:10.993Z,17.60
2022-11-06T01:03:40.525Z,18.10
2022-11-06T01:06:11.279Z,16.73
2022-11-06T01:08:40.520Z,18.27
2022-11-06T01:11:13.166Z,18.97
2022-11-06T01:13:43.670Z,17.23
2022-11-06T01:16:15.092Z,17.30
2022-11-06T01:18:45.533Z,17.73
2022-11-06T01:21:16.675Z,17.87
2022-11-06T01:23:45.914Z,17.03
2022-11-06T01:26:24.655Z,18.00
2022-11-06T01:29:06.277Z,17.30
2022-11-06T01:31:36.404Z,16.30
2022-11-06T01:34:05.912Z,16.37
2022-11-06T01:36:35.006Z,16.93
2022-11-06T01:39:06.244Z,17.00
2022-11-06T01:41:39.251Z,16.90
2022-11-06T01:44:24.258Z,16.27
2022-11-06T01:46:52.741Z,15.77
2022-11-06T01:49:21.279Z,16.03
2022-11-06T01:51:53.204Z,15.47
2022-11-06T01:54:22.763Z,14.83
2022-11-06T01:56:56.058Z,15.37
2022-11-06T01:59:28.578Z,14.87
2022-11-06T02:01:57.366Z,14.60
2022-11-06T02:04:27.661Z,13.70
2022-11-06T02:06:58.163Z,13.90
2022-11-06T02:09:27.237Z,14.70
2022-11-06T02:12:04.325Z,13.63
2022-11-06T02:14:41.522Z,13.27
2022-11-06T02:17:16.136Z,12.77
2022-11-06T02:19:57.448Z,13.23
2022-11-06T02:22:38.182Z,12.53
2022-11-06T02:25:17.848Z,13.67
2022-11-06T02:27:53.121Z,13.70
2022-11-06T02:30:21.759Z,12.97
2022-11-06T02:32:54.099Z,12.57
2022-11-06T02:35:26.674Z,13.30
2022-11-06T02:38:00.139Z,13.30
2022-11-06T02:40:33.568Z,14.20
2022-11-06T02:43:08.194Z,14.00
2022-11-06T02:45:43.256Z,14.10
2022-11-06T02:48:15.694Z,15.17
2022-11-06T02:50:48.508Z,15.10
2022-11-06T02:53:19.688Z,15.37
2022-11-06T02:55:51.600Z,16.40
2022-11-06T02:58:24.560Z,17.43
2022-11-06T03:00:57.390Z,17.57
2022-11-06T03:03:29.490Z,17.23
2022-11-06T03:06:03.095Z,17.53
2022-11-06T03:08:36.259Z,17.30
2022-11-06T03:11:13.796Z,17.60
2022-11-06T03:13:52.688Z,18.47
2022-11-06T03:16:30.575Z,18.00
2022-11-06T03:19:05.397Z,18.77
2022-11-06T03:21:39.497Z,19.60
2022-11-06T03:24:16.049Z,19.33
2022-11-06T03:26:48.959Z,21.53
2022-11-06T03:29:23.169Z,21.80
2022-11-06T03:31:55.498Z,22.13
2022-11-06T03:34:30.190Z,20.93
2022-11-06T03:37:04.312Z,19.70
2022-11-06T03:39:37.764Z,20.53
2022-11-06T03:42:09.681Z,21.10
2022-11-06T03:44:42.728Z,22.23
2022-11-06T03:47:18.215Z,22.30
2022-11-06T03:49:50.958Z,24.73
2022-11-06T03:52:26.925Z,23.20
2022-11-06T03:54:59.946Z,23.53
2022-11-06T03:57:35.298Z,24.70
2022-11-06T04:00:09.289Z,24.40
2022-11-06T04:02:44.974Z,23.37
2022-11-06T04:05:18.994Z,25.43
2022-11-06T04:08:04.254Z,23.83
2022-11-06T04:10:51.354Z,23.73
2022-11-06T04:13:39.431Z,23.80
2022-11-06T04:16:10.978Z,26.43
2022-11-06T04:18:39.428Z,27.57
2022-11-06T04:21:26.147Z,25.00
2022-11-06T04:24:24.827Z,24.30
2022-11-06T04:27:06.640Z,26.27
2022-11-06T04:29:49.802Z,24.43
2022-11-06T04:32:27.566Z,25.73
2022-11-06T04:35:05.241Z,28.07
2022-11-06T04:37:40.499Z,31.57
2022-11-06T04:40:12.836Z,26.23
2022-11-06T04:42:48.265Z,25.53
2022-11-06T04:45:20.898Z,25.37
2022-11-06T04:47:52.454Z,26.43
2022-11-06T04:50:23.588Z,29.57
2022-11-06T04:52:53.149Z,25.93
2022-11-06T04:55:22.843Z,25.80
2022-11-06T04:57:51.426Z,24.70
2022-11-06T05:00:25.690Z,29.13
2022-11-06T05:02:55.742Z,25.90
2022-11-06T05:05:24.167Z,26.87
2022-11-06T05:07:52.777Z,28.90
2022-11-06T05:10:21.219Z,27.97
2022-11-06T05:12:49.866Z,28.70
2022-11-06T05:15:18.268Z,24.60
2022-11-06T05:17:47.134Z,31.00
2022-11-06T05:20:17.336Z,28.27
2022-11-06T05:23:00.693Z,29.07
2022-11-06T05:25:31.629Z,24.43
2022-11-06T05:28:01.014Z,23.80
2022-11-06T05:30:29.684Z,24.10
2022-11-06T05:32:58.102Z,23.37
2022-11-06T05:35:28.100Z,26.20
2022-11-06T05:38:00.702Z,24.27
2022-11-06T05:40:29.401Z,23.37
2022-11-06T05:42:57.854Z,24.43
2022-11-06T05:45:26.527Z,25.00
2022-11-06T05:47:54.880Z,27.00
2022-11-06T05:50:23.547Z,23.67
2022-11-06T05:52:53.845Z,25.63
2022-11-06T05:55:22.363Z,24.87
2022-11-06T05:57:50.894Z,21.93
2022-11-06T06:00:19.646Z,24.03
2022-11-06T06:02:48.228Z,24.73
2022-11-06T06:05:16.988Z,24.83
2022-11-06T06:07:45.630Z,24.80
2022-11-06T06:10:15.485Z,24.73
2022-11-06T06:12:43.894Z,25.00
2022-11-06T06:15:15.088Z,22.90
2022-11-06T06:17:43.533Z,23.40
2022-11-06T06:20:12.963Z,23.57
2022-11-06T06:22:41.882Z,22.13
2022-11-06T06:25:19.517Z,21.60
2022-11-06T06:27:52.814Z,22.63
2022-11-06T06:30:22.039Z,22.10
2022-11-06T06:32:50.545Z,21.27
2022-11-06T06:35:19.525Z,21.23
2022-11-06T06:37:53.380Z,21.80
2022-11-06T06:40:22.131Z,20.67
2022-11-06T06:42:52.106Z,20.73
2022-11-06T06:45:20.553Z,20.97
2022-11-06T06:47:49.096Z,19.57
2022-11-06T06:50:17.792Z,19.53
2022-11-06T06:52:46.275Z,19.27
2022-11-06T06:55:14.842Z,19.10
2022-11-06T06:57:43.476Z,19.90
2022-11-06T07:00:14.435Z,18.80
2022-11-06T07:02:42.924Z,24.80
2022-11-06T07:05:11.497Z,18.13
2022-11-06T07:07:40.008Z,19.17
2022-11-06T07:10:09.302Z,17.13
2022-11-06T07:12:37.792Z,16.77
2022-11-06T07:15:07.170Z,16.83
2022-11-06T07:17:37.140Z,16.10
2022-11-06T07:20:06.881Z,16.17
2022-11-06T07:22:37.268Z,14.67
2022-11-06T07:25:06.980Z,12.43
2022-11-06T07:27:35.386Z,16.07
2022-11-06T07:30:03.885Z,13.80
2022-11-06T07:32:32.600Z,14.20
2022-11-06T07:35:02.692Z,14.33
2022-11-06T07:37:31.201Z,14.43
2022-11-06T07:39:59.748Z,11.40
2022-11-06T07:42:29.412Z,9.93
2022-11-06T07:45:03.123Z,9.00
2022-11-06T07:47:31.866Z,9.33
2022-11-06T07:50:00.492Z,8.40
2022-11-06T07:52:30.476Z,8.50
2022-11-06T07:54:59.046Z,8.83
2022-11-06T07:57:27.737Z,8.17
2022-11-06T07:59:56.354Z,7.87
2022-11-06T08:02:25.082Z,8.87
2022-11-06T08:04:53.674Z,8.77
2022-11-06T08:07:22.210Z,8.20
2022-11-06T08:09:52.149Z,9.30
2022-11-06T08:12:20.686Z,8.27
2022-11-06T08:14:49.160Z,9.30
2022-11-06T08:17:17.599Z,8.10
2022-11-06T08:19:46.173Z,8.30
2022-11-06T08:22:14.655Z,8.37
2022-11-06T08:24:43.210Z,8.73
2022-11-06T08:27:13.221Z,8.03
2022-11-06T08:29:41.955Z,8.47
2022-11-06T08:32:10.896Z,7.77
2022-11-06T08:34:39.363Z,8.20
2022-11-06T08:37:07.773Z,8.17
2022-11-06T08:39:36.237Z,8.87
2022-11-06T08:42:05.671Z,8.37
2022-11-06T08:44:35.648Z,8.00
2022-11-06T08:47:04.155Z,8.57
2022-11-06T08:49:32.713Z,8.33
2022-11-06T08:52:01.347Z,8.50
2022-11-06T08:54:29.797Z,8.60
2022-11-06T08:56:58.994Z,9.23
2022-11-06T08:59:27.505Z,9.00
2022-11-06T09:01:58.305Z,9.00
2022-11-06T09:04:26.887Z,9.63
2022-11-06T09:06:55.436Z,9.13
2022-11-06T09:09:24.181Z,9.83
2022-11-06T09:11:52.724Z,9.90
2022-11-06T09:14:21.157Z,9.70
2022-11-06T09:16:49.629Z,10.13
2022-11-06T09:19:19.683Z,10.40
2022-11-06T09:21:54.417Z,10.27
2022-11-06T09:24:43.191Z,10.47
2022-11-06T09:27:11.778Z,10.73
2022-11-06T09:29:43.977Z,10.30
2022-11-06T09:32:12.540Z,9.77
2022-11-06T09:34:42.512Z,10.80
2022-11-06T09:37:11.048Z,9.63
2022-11-06T09:39:39.580Z,9.77
2022-11-06T09:42:21.291Z,9.50
2022-11-06T09:45:02.536Z,9.80
2022-11-06T09:47:35.795Z,9.47
2022-11-06T09:50:13.736Z,9.33
2022-11-06T09:52:45.489Z,10.00
2022-11-06T09:55:19.429Z,8.93
2022-11-06T09:57:51.516Z,9.87
2022-11-06T10:00:20.333Z,9.13
2022-11-06T10:02:51.265Z,9.73
2022-11-06T10:05:26.999Z,9.03
2022-11-06T10:07:58.186Z,8.97
2022-11-06T10:10:32.154Z,9.27
2022-11-06T10:13:17.510Z,9.47
2022-11-06T10:15:53.381Z,9.37
2022-11-06T10:18:31.072Z,9.17
2022-11-06T10:21:11.046Z,8.57
2022-11-06T10:23:46.769Z,9.00
2022-11-06T10:26:18.342Z,9.03
2022-11-06T10:29:12.528Z,8.70
2022-11-06T10:31:52.040Z,9.13
2022-11-06T10:34:23.968Z,9.27
2022-11-06T10:36:58.397Z,8.90
2022-11-06T10:39:30.857Z,8.03
2022-11-06T10:42:03.077Z,7.60
2022-11-06T10:44:37.403Z,9.23
2022-11-06T10:47:12.400Z,9.80
2022-11-06T10:49:46.850Z,9.73
2022-11-06T10:52:34.364Z,10.40
2022-11-06T10:55:37.531Z,10.20
2022-11-06T10:58:09.950Z,10.73
2022-11-06T11:00:38.804Z,10.50
2022-11-06T11:03:15.508Z,10.87
2022-11-06T11:05:45.956Z,11.27
2022-11-06T11:08:42.242Z,10.63
2022-11-06T11:11:25.692Z,10.87
2022-11-06T11:14:16.320Z,11.03
2022-11-06T11:16:47.021Z,10.53
2022-11-06T11:19:26.434Z,11.13
2022-11-06T11:21:57.243Z,12.30
2022-11-06T11:24:28.163Z,12.20
2022-11-06T11:27:01.300Z,11.83
2022-11-06T11:29:33.158Z,10.80
2022-11-06T11:32:04.001Z,11.33
2022-11-06T11:34:35.398Z,11.30
2022-11-06T11:37:05.936Z,12.20
2022-11-06T11:39:39.712Z,11.83
2022-11-06T11:42:22.727Z,11.40
2022-11-06T11:45:13.570Z,12.13
2022-11-06T11:47:43.848Z,12.27
2022-11-06T11:50:30.974Z,12.40
2022-11-06T11:53:10.521Z,12.03
2022-11-06T11:55:44.815Z,14.43
2022-11-06T11:58:21.610Z,12.37
2022-11-06T12:00:56.263Z,10.90
2022-11-06T12:03:28.308Z,10.40
2022-11-06T12:06:07.778Z,11.17
2022-11-06T12:08:36.669Z,10.13
2022-11-06T12:11:08.316Z,10.50
2022-11-06T12:13:36.914Z,11.00
2022-11-06T12:16:09.565Z,9.70
2022-11-06T12:18:41.760Z,9.60
2022-11-06T12:21:15.482Z,9.83
2022-11-06T12:23:48.669Z,9.60
2022-11-06T12:26:26.400Z,9.57
2022-11-06T12:29:04.643Z,9.47
2022-11-06T12:31:40.248Z,9.50
2022-11-06T12:34:17.609Z,8.60
2022-11-06T12:36:56.620Z,8.33
2022-11-06T12:39:30.942Z,9.37
2022-11-06T12:42:05.433Z,8.43
2022-11-06T12:44:34.028Z,8.57
2022-11-06T12:47:09.469Z,9.00
2022-11-06T12:49:54.058Z,9.03
2022-11-06T12:52:34.039Z,10.27
2022-11-06T12:55:17.290Z,9.43
2022-11-06T12:58:04.044Z,9.60
2022-11-06T13:00:41.111Z,9.33
2022-11-06T13:03:28.319Z,9.40
2022-11-06T13:06:12.021Z,8.27
2022-11-06T13:08:50.543Z,8.47
2022-11-06T13:11:29.629Z,7.93
2022-11-06T13:14:09.678Z,8.60
2022-11-06T13:16:45.640Z,8.43
2022-11-06T13:19:22.223Z,7.93
2022-11-06T13:22:12.598Z,8.27
2022-11-06T13:24:48.283Z,8.10
2022-11-06T13:27:25.714Z,7.43
2022-11-06T13:29:58.872Z,7.40
2022-11-06T13:32:29.746Z,7.30
2022-11-06T13:35:00.713Z,7.53
2022-11-06T13:37:39.313Z,7.90
2022-11-06T13:40:23.838Z,7.60
2022-11-06T13:42:56.887Z,7.33
2022-11-06T13:45:28.594Z,7.33
2022-11-06T13:48:12.455Z,6.67
2022-11-06T13:50:50.643Z,6.53
2022-11-06T13:53:24.308Z,7.43
2022-11-06T13:56:03.817Z,7.43
2022-11-06T13:58:56.346Z,7.17
2022-11-06T14:01:36.855Z,7.53
2022-11-06T14:04:40.957Z,7.70
2022-11-06T14:07:10.633Z,6.70
2022-11-06T14:09:44.722Z,6.80
2022-11-06T14:12:20.510Z,7.27
2022-11-06T14:14:50.042Z,7.03
2022-11-06T14:17:25.518Z,7.60
2022-11-06T14:20:08.748Z,7.33
2022-11-06T14:22:38.711Z,7.23
2022-11-06T14:25:47.408Z,7.60
2022-11-06T14:28:31.374Z,7.67
2022-11-06T14:31:17.220Z,8.07
2022-11-06T14:34:03.386Z,7.67
2022-11-06T14:36:40.834Z,8.10
2022-11-06T14:39:14.477Z,8.53
2022-11-06T14:42:01.052Z,8.47
2022-11-06T14:44:44.687Z,9.57
2022-11-06T14:47:33.455Z,9.67
2022-11-06T14:50:07.548Z,9.23
2022-11-06T14:52:46.900Z,9.50
2022-11-06T14:55:28.552Z,9.27
2022-11-06T14:58:00.530Z,10.27
2022-11-06T15:00:39.780Z,10.00
2022-11-06T15:03:21.905Z,9.90
2022-11-06T15:05:53.826Z,9.53
2022-11-06T15:08:58.486Z,10.60
2022-11-06T15:11:59.175Z,10.40
2022-11-06T15:14:57.461Z,10.80
2022-11-06T15:17:29.006Z,10.47
2022-11-06T15:20:20.697Z,11.10
2022-11-06T15:23:04.593Z,11.23
2022-11-06T15:25:34.879Z,10.20
2022-11-06T15:28:07.887Z,11.50
2022-11-06T15:30:43.566Z,11.30
2022-11-06T15:33:17.277Z,11.57
2022-11-06T15:35:49.704Z,11.80
2022-11-06T15:38:23.387Z,11.23
2022-11-06T15:40:54.352Z,10.47
2022-11-06T15:43:32.545Z,11.50
2022-11-06T15:46:18.434Z,11.07
2022-11-06T15:48:47.498Z,10.87
2022-11-06T15:51:27.331Z,10.77
2022-11-06T15:53:57.442Z,10.50
2022-11-06T15:56:30.650Z,11.60
2022-11-06T15:59:13.906Z,11.50
2022-11-06T16:01:43.196Z,11.33
2022-11-06T16:04:16.930Z,11.37
2022-11-06T16:06:47.731Z,11.50
2022-11-06T16:09:21.483Z,11.60
2022-11-06T16:11:52.962Z,11.23
2022-11-06T16:14:22.521Z,11.77
2022-11-06T16:16:52.966Z,11.33
2022-11-06T16:19:32.353Z,11.13
2022-11-06T16:22:06.128Z,10.53
2022-11-06T16:24:42.695Z,11.17
2022-11-06T16:27:12.019Z,11.10
2022-11-06T16:29:41.299Z,10.80
2022-11-06T16:32:16.115Z,10.30
2022-11-06T16:34:46.031Z,10.47
2022-11-06T16:37:40.222Z,11.77
2022-11-06T16:40:51.400Z,11.80
2022-11-06T16:43:22.099Z,11.77
2022-11-06T16:45:59.272Z,11.43
2022-11-06T16:48:35.586Z,11.70
2022-11-06T16:51:07.117Z,11.93
2022-11-06T16:53:50.120Z,11.37
2022-11-06T16:56:25.040Z,11.93
2022-11-06T16:58:56.473Z,11.03
2022-11-06T17:01:26.946Z,10.77
2022-11-06T17:03:59.523Z,11.60
2022-11-06T17:06:30.340Z,11.30
2022-11-06T17:09:09.598Z,11.07
2022-11-06T17:11:40.188Z,11.57
2022-11-06T17:14:19.719Z,11.57
2022-11-06T17:16:50.764Z,11.17
2022-11-06T17:19:20.320Z,11.53
2022-11-06T17:21:49.576Z,11.00
2022-11-06T17:27:08.431Z,12.07
2022-11-06T17:29:37.302Z,11.80
2022-11-06T17:32:06.443Z,12.73
2022-11-06T17:34:34.981Z,12.20
2022-11-06T17:37:04.123Z,10.93
2022-11-06T17:39:32.915Z,12.03
2022-11-06T17:42:01.458Z,11.53
2022-11-06T17:44:31.499Z,11.33
2022-11-06T17:46:59.971Z,11.57
2022-11-06T17:49:28.435Z,12.00
2022-11-06T17:52:00.594Z,11.37
2022-11-06T17:54:32.409Z,11.73
2022-11-06T17:57:02.701Z,11.67
2022-11-06T17:59:33.413Z,11.20
2022-11-06T18:02:02.132Z,10.97
2022-11-06T18:04:31.785Z,10.67
2022-11-06T18:07:00.349Z,12.53
2022-11-06T18:09:33.371Z,11.87
2022-11-06T18:12:02.754Z,12.47
2022-11-06T18:14:32.714Z,11.93
2022-11-06T18:17:01.421Z,13.23
2022-11-06T18:19:30.127Z,12.70
2022-11-06T18:22:03.861Z,12.63
2022-11-06T18:24:37.404Z,12.07
2022-11-06T18:27:05.886Z,12.43
2022-11-06T18:29:35.839Z,12.13
2022-11-06T18:32:04.384Z,12.03
2022-11-06T18:34:33.015Z,12.70
2022-11-06T18:37:01.467Z,12.17
2022-11-06T18:39:30.002Z,12.50
2022-11-06T18:42:00.244Z,12.30
2022-11-06T18:44:28.721Z,12.10
2022-11-06T18:46:58.600Z,12.37
2022-11-06T18:49:27.060Z,13.60
2022-11-06T18:51:55.550Z,13.50
2022-11-06T18:54:24.100Z,14.73
2022-11-06T18:56:52.642Z,14.87
2022-11-06T18:59:21.191Z,15.17
2022-11-06T19:01:49.806Z,14.57
2022-11-06T19:04:21.976Z,14.93
2022-11-06T19:06:50.936Z,15.30
2022-11-06T19:09:19.446Z,15.30
2022-11-06T19:11:49.087Z,15.47
2022-11-06T19:14:17.970Z,15.40
2022-11-06T19:16:46.727Z,15.20
2022-11-06T19:19:24.940Z,16.03
2022-11-06T19:21:55.947Z,15.00
2022-11-06T19:24:24.737Z,16.43
2022-11-06T19:26:53.315Z,16.27
2022-11-06T19:29:21.751Z,16.20
2022-11-06T19:31:50.679Z,15.37
2022-11-06T19:34:20.270Z,16.03
2022-11-06T19:36:48.762Z,16.07
2022-11-06T19:39:18.970Z,16.47
2022-11-06T19:41:47.640Z,15.83
2022-11-06T19:44:16.452Z,15.87
2022-11-06T19:46:44.910Z,16.33
2022-11-06T19:49:13.789Z,16.20
2022-11-06T19:51:42.427Z,17.27
2022-11-06T19:54:11.287Z,16.43
2022-11-06T19:57:27.831Z,16.23
2022-11-06T19:59:30.037Z,16.47
2022-11-06T20:01:58.515Z,15.77
2022-11-06T20:04:28.144Z,15.20
2022-11-06T20:06:56.704Z,16.20
2022-11-06T20:09:25.320Z,17.63
2022-11-06T20:11:55.209Z,17.77
2022-11-06T20:14:23.689Z,16.23
2022-11-06T20:16:52.361Z,15.77
2022-11-06T20:19:21.227Z,16.07
2022-11-06T20:21:50.006Z,14.60
2022-11-06T20:24:18.548Z,15.30
2022-11-06T20:26:47.084Z,14.77
2022-11-06T20:29:17.064Z,15.40
2022-11-06T20:31:45.659Z,15.33
2022-11-06T20:34:14.253Z,14.43
2022-11-06T20:36:42.686Z,14.83
2022-11-06T20:39:11.196Z,15.27
2022-11-06T20:41:39.761Z,14.70
2022-11-06T20:44:08.191Z,15.33
2022-11-06T20:46:38.409Z,15.77
2022-11-06T20:49:06.924Z,15.47
2022-11-06T20:51:48.271Z,15.53
2022-11-06T20:54:22.560Z,15.47
2022-11-06T20:56:51.133Z,15.23
2022-11-06T20:59:19.755Z,14.70
2022-11-06T21:01:49.785Z,14.90
2022-11-06T21:04:18.501Z,15.13
2022-11-06T21:06:47.076Z,14.33
2022-11-06T21:09:16.835Z,15.43
2022-11-06T21:11:45.458Z,13.57
2022-11-06T21:14:13.883Z,14.97
2022-11-06T21:16:42.493Z,15.47
2022-11-06T21:19:12.621Z,16.23
2022-11-06T21:21:41.441Z,15.40
2022-11-06T21:24:10.066Z,15.60
2022-11-06T21:26:39.523Z,15.27
2022-11-06T21:29:10.629Z,15.13
2022-11-06T21:31:45.641Z,15.67
2022-11-06T21:34:19.852Z,15.07
2022-11-06T21:36:49.129Z,15.97
2022-11-06T21:39:19.538Z,15.50
2022-11-06T21:41:48.452Z,15.50
2022-11-06T21:44:18.902Z,15.17
2022-11-06T21:46:47.591Z,16.33
2022-11-06T21:49:17.821Z,15.53
2022-11-06T21:51:46.282Z,15.17
2022-11-06T21:54:40.697Z,15.10
2022-11-06T21:57:09.182Z,15.97
2022-11-06T21:59:41.692Z,15.37
2022-11-06T22:02:11.521Z,15.50
2022-11-06T22:04:41.779Z,15.47
2022-11-06T22:07:10.287Z,15.97
2022-11-06T22:09:38.925Z,15.90
2022-11-06T22:12:08.142Z,15.53
2022-11-06T22:14:36.810Z,15.97
2022-11-06T22:17:05.246Z,15.77
2022-11-06T22:19:33.838Z,15.93
2022-11-06T22:22:03.882Z,15.53
2022-11-06T22:24:32.320Z,15.70
2022-11-06T22:27:00.914Z,15.57
2022-11-06T22:29:29.391Z,15.53
2022-11-06T22:31:57.842Z,14.70
2022-11-06T22:34:26.736Z,14.47
2022-11-06T22:36:55.560Z,14.80
2022-11-06T22:39:25.490Z,15.67
2022-11-06T22:41:53.973Z,14.33
2022-11-06T22:44:22.820Z,14.53
2022-11-06T22:46:51.511Z,14.87
2022-11-06T22:49:20.107Z,15.40
2022-11-06T22:51:49.205Z,14.60
2022-11-06T22:54:17.784Z,15.10
2022-11-06T22:56:47.826Z,14.73
2022-11-06T22:59:16.369Z,14.43
2022-11-06T23:01:45.349Z,14.90
2022-11-06T23:04:16.043Z,14.37
2022-11-06T23:06:45.715Z,14.77
2022-11-06T23:09:14.469Z,15.13
2022-11-06T23:11:43.078Z,15.20
2022-11-06T23:14:13.114Z,15.20
2022-11-06T23:17:00.993Z,15.47
2022-11-06T23:19:31.483Z,14.83
2022-11-06T23:22:17.803Z,15.87
2022-11-06T23:24:46.445Z,15.10
2022-11-06T23:27:14.999Z,16.40
2022-11-06T23:29:44.855Z,15.10
2022-11-06T23:32:13.462Z,15.60
2022-11-06T23:34:41.910Z,15.27
2022-11-06T23:37:11.550Z,15.27
2022-11-06T23:39:40.371Z,15.83
2022-11-06T23:42:08.915Z,14.97
2022-11-06T23:44:54.620Z,15.47
2022-11-06T23:47:24.603Z,15.33
2022-11-06T23:49:53.234Z,14.70
2022-11-06T23:52:21.644Z,14.03
2022-11-06T23:54:50.110Z,14.33
2022-11-06T23:57:19.044Z,14.13
2022-11-06T23:59:47.526Z,14.07
